createdAt,value
2023-01-29T00:03:02.226Z,13.60
2023-01-29T00:06:07.816Z,13.37
2023-01-29T00:09:11.828Z,13.93
2023-01-29T00:12:14.749Z,12.25
2023-01-29T00:15:18.607Z,14.20
2023-01-29T00:18:21.766Z,13.70
2023-01-29T00:21:24.739Z,14.63
2023-01-29T00:24:27.721Z,14.48
2023-01-29T00:27:30.608Z,13.10
2023-01-29T00:30:35.480Z,14.07
2023-01-29T00:33:39.332Z,14.02
2023-01-29T00:36:45.636Z,13.50
2023-01-29T00:39:49.470Z,14.07
2023-01-29T00:43:11.035Z,13.15
2023-01-29T00:46:14.724Z,11.43
2023-01-29T00:49:17.925Z,14.38
2023-01-29T00:52:26.755Z,13.33
2023-01-29T00:55:29.547Z,13.73
2023-01-29T00:58:35.438Z,12.05
2023-01-29T01:01:59.584Z,13.25
2023-01-29T01:05:03.322Z,13.70
2023-01-29T01:08:29.107Z,12.73
2023-01-29T01:11:33.721Z,12.93
2023-01-29T01:14:36.612Z,13.18
2023-01-29T01:17:39.539Z,12.77
2023-01-29T01:20:44.325Z,11.70
2023-01-29T01:23:47.795Z,11.93
2023-01-29T01:26:50.622Z,10.70
2023-01-29T01:29:53.664Z,12.85
2023-01-29T01:32:56.932Z,12.93
2023-01-29T01:36:02.297Z,11.68
2023-01-29T01:39:05.134Z,10.93
2023-01-29T01:42:13.237Z,11.70
2023-01-29T01:45:29.914Z,11.73
2023-01-29T01:48:32.797Z,11.43
2023-01-29T01:51:46.503Z,11.40
2023-01-29T01:54:52.094Z,11.67
2023-01-29T01:58:12.272Z,12.70
2023-01-29T02:01:15.232Z,12.70
2023-01-29T02:04:41.060Z,11.85
2023-01-29T02:08:05.944Z,10.75
2023-01-29T02:11:08.887Z,11.10
2023-01-29T02:14:12.301Z,12.80
2023-01-29T02:17:18.786Z,11.35
2023-01-29T02:20:26.046Z,11.90
2023-01-29T02:23:40.411Z,12.07
2023-01-29T02:27:11.292Z,12.60
2023-01-29T02:30:28.032Z,10.65
2023-01-29T02:33:39.817Z,12.82
2023-01-29T02:36:51.775Z,11.90
2023-01-29T02:40:16.815Z,11.32
2023-01-29T02:43:47.840Z,11.70
2023-01-29T02:47:11.478Z,11.73
2023-01-29T02:50:26.637Z,13.15
2023-01-29T02:53:47.516Z,11.32
2023-01-29T02:57:01.008Z,11.77
2023-01-29T03:00:18.835Z,12.53
2023-01-29T03:03:40.759Z,11.88
2023-01-29T03:06:52.064Z,12.20
2023-01-29T03:09:56.627Z,11.27
2023-01-29T03:13:34.542Z,11.65
2023-01-29T03:16:42.048Z,10.37
2023-01-29T03:19:47.122Z,10.18
2023-01-29T03:23:09.043Z,10.20
2023-01-29T03:26:35.471Z,10.00
2023-01-29T03:29:58.524Z,10.68
2023-01-29T03:33:15.353Z,8.83
2023-01-29T03:36:25.113Z,9.95
2023-01-29T03:39:29.414Z,9.65
2023-01-29T03:42:46.359Z,8.40
2023-01-29T03:46:00.920Z,9.98
2023-01-29T03:49:30.299Z,8.07
2023-01-29T03:52:36.435Z,9.45
2023-01-29T03:55:55.430Z,9.18
2023-01-29T03:59:38.673Z,8.40
2023-01-29T04:03:10.938Z,6.90
2023-01-29T04:06:27.443Z,6.50
2023-01-29T04:09:41.902Z,6.50
2023-01-29T04:12:50.343Z,7.38
2023-01-29T04:16:00.671Z,7.00
2023-01-29T04:19:26.511Z,6.45
2023-01-29T04:22:38.274Z,6.77
2023-01-29T04:25:47.970Z,7.65
2023-01-29T04:28:56.236Z,5.40
2023-01-29T04:32:16.119Z,5.25
2023-01-29T04:35:40.673Z,6.03
2023-01-29T04:39:24.237Z,5.57
2023-01-29T04:42:34.389Z,6.30
2023-01-29T04:45:54.162Z,6.43
2023-01-29T04:49:01.368Z,6.38
2023-01-29T04:52:22.545Z,6.95
2023-01-29T04:55:31.143Z,5.30
2023-01-29T04:58:47.397Z,6.03
2023-01-29T05:01:50.355Z,6.18
2023-01-29T05:04:56.155Z,6.35
2023-01-29T05:07:59.635Z,6.65
2023-01-29T05:11:02.627Z,6.87
2023-01-29T05:14:10.008Z,6.00
2023-01-29T05:17:17.939Z,5.72
2023-01-29T05:20:21.617Z,6.18
2023-01-29T05:23:25.015Z,6.60
2023-01-29T05:26:46.637Z,6.30
2023-01-29T05:29:49.523Z,6.55
2023-01-29T05:32:52.375Z,5.95
2023-01-29T05:35:56.387Z,5.65
2023-01-29T05:38:59.247Z,6.53
2023-01-29T05:42:02.334Z,6.40
2023-01-29T05:45:05.766Z,6.10
2023-01-29T05:48:08.637Z,5.80
2023-01-29T05:51:11.775Z,5.78
2023-01-29T05:54:14.597Z,6.13
2023-01-29T05:57:17.442Z,6.20
2023-01-29T06:00:20.493Z,6.80
2023-01-29T06:03:23.513Z,6.38
2023-01-29T06:06:26.360Z,6.15
2023-01-29T06:09:30.445Z,6.43
2023-01-29T06:12:33.334Z,5.60
2023-01-29T06:15:36.117Z,5.57
2023-01-29T06:18:40.405Z,5.85
2023-01-29T06:21:43.311Z,5.88
2023-01-29T06:24:46.105Z,6.60
2023-01-29T06:27:51.452Z,6.33
2023-01-29T06:30:59.695Z,6.97
2023-01-29T06:34:04.638Z,12.38
2023-01-29T06:37:09.869Z,13.88
2023-01-29T06:40:13.175Z,7.60
2023-01-29T06:43:16.099Z,6.17
2023-01-29T06:46:18.926Z,5.60
2023-01-29T06:49:21.760Z,6.28
2023-01-29T06:52:28.851Z,6.00
2023-01-29T06:55:31.594Z,6.32
2023-01-29T06:58:37.756Z,7.50
2023-01-29T07:01:42.514Z,7.95
2023-01-29T07:04:45.448Z,6.95
2023-01-29T07:07:53.335Z,5.47
2023-01-29T07:11:04.417Z,6.13
2023-01-29T07:14:07.455Z,5.30
2023-01-29T07:17:10.263Z,4.65
2023-01-29T07:20:13.292Z,5.50
2023-01-29T07:23:18.267Z,5.00
2023-01-29T07:26:21.398Z,5.22
2023-01-29T07:29:24.395Z,5.90
2023-01-29T07:32:29.146Z,5.03
2023-01-29T07:35:32.684Z,5.40
2023-01-29T07:38:35.412Z,4.90
2023-01-29T07:41:38.671Z,4.90
2023-01-29T07:44:51.320Z,4.60
2023-01-29T07:47:55.380Z,4.45
2023-01-29T07:51:00.047Z,4.70
2023-01-29T07:54:02.978Z,4.78
2023-01-29T07:57:05.805Z,4.80
2023-01-29T08:00:10.293Z,4.63
2023-01-29T08:03:22.902Z,5.13
2023-01-29T08:06:25.667Z,5.40
2023-01-29T08:09:28.539Z,5.18
2023-01-29T08:12:31.666Z,5.07
2023-01-29T08:15:37.889Z,5.40
2023-01-29T08:18:44.189Z,4.90
2023-01-29T08:21:47.007Z,5.22
2023-01-29T08:24:53.970Z,5.07
2023-01-29T08:28:03.121Z,5.75
2023-01-29T08:31:13.721Z,4.90
2023-01-29T08:34:17.478Z,6.07
2023-01-29T08:37:20.311Z,5.68
2023-01-29T08:40:23.159Z,5.88
2023-01-29T08:43:26.077Z,6.43
2023-01-29T08:46:28.903Z,5.57
2023-01-29T08:49:31.687Z,6.07
2023-01-29T08:52:34.515Z,6.78
2023-01-29T08:55:40.033Z,6.10
2023-01-29T08:58:43.583Z,6.38
2023-01-29T09:01:46.363Z,6.00
2023-01-29T09:04:49.102Z,6.30
2023-01-29T09:07:56.660Z,6.78
2023-01-29T09:11:00.502Z,5.95
2023-01-29T09:14:03.358Z,7.53
2023-01-29T09:17:06.281Z,6.23
2023-01-29T09:20:10.065Z,7.15
2023-01-29T09:23:14.151Z,7.22
2023-01-29T09:26:16.994Z,8.05
2023-01-29T09:29:20.685Z,7.45
2023-01-29T09:35:47.244Z,7.80
2023-01-29T09:38:50.064Z,8.75
2023-01-29T09:42:17.283Z,7.20
2023-01-29T09:45:30.582Z,6.95
2023-01-29T09:48:36.471Z,7.47
2023-01-29T09:51:46.790Z,8.07
2023-01-29T09:55:07.521Z,8.77
2023-01-29T09:58:38.560Z,7.32
2023-01-29T10:01:50.512Z,7.65
2023-01-29T10:05:08.695Z,6.73
2023-01-29T10:08:30.811Z,6.43
2023-01-29T10:11:49.003Z,6.78
2023-01-29T10:15:19.971Z,6.13
2023-01-29T10:18:32.029Z,6.32
2023-01-29T10:22:27.753Z,6.27
2023-01-29T10:25:36.737Z,5.97
2023-01-29T10:28:45.993Z,5.95
2023-01-29T10:31:56.906Z,6.40
2023-01-29T10:35:23.198Z,7.05
2023-01-29T10:38:45.595Z,7.10
2023-01-29T10:42:07.091Z,6.38
2023-01-29T10:45:24.361Z,6.75
2023-01-29T10:49:00.416Z,6.88
2023-01-29T10:52:10.097Z,6.63
2023-01-29T10:55:19.172Z,7.50
2023-01-29T10:58:31.791Z,7.07
2023-01-29T11:01:36.336Z,8.25
2023-01-29T11:04:39.365Z,7.53
2023-01-29T11:07:42.169Z,7.05
2023-01-29T11:10:53.462Z,7.00
2023-01-29T11:14:00.714Z,12.65
2023-01-29T11:17:04.493Z,8.75
2023-01-29T11:20:26.656Z,6.88
2023-01-29T11:23:33.849Z,7.53
2023-01-29T11:26:40.464Z,6.70
2023-01-29T11:29:48.351Z,7.57
2023-01-29T11:33:07.429Z,7.28
2023-01-29T11:36:35.585Z,7.28
2023-01-29T11:39:44.697Z,7.78
2023-01-29T11:42:48.778Z,7.10
2023-01-29T11:45:56.169Z,7.32
2023-01-29T11:49:14.043Z,8.00
2023-01-29T11:52:25.499Z,6.72
2023-01-29T11:55:41.145Z,7.32
2023-01-29T11:58:55.597Z,7.10
2023-01-29T12:02:13.623Z,7.13
2023-01-29T12:05:18.957Z,7.85
2023-01-29T12:08:24.504Z,8.27
2023-01-29T12:11:35.927Z,7.38
2023-01-29T12:14:39.299Z,7.53
2023-01-29T12:17:47.692Z,7.55
2023-01-29T12:20:57.727Z,8.50
2023-01-29T12:24:12.655Z,7.22
2023-01-29T12:27:49.338Z,7.60
2023-01-29T12:31:07.609Z,6.83
2023-01-29T12:34:39.384Z,6.85
2023-01-29T12:37:54.430Z,7.70
2023-01-29T12:41:05.682Z,8.10
2023-01-29T12:44:31.697Z,7.43
2023-01-29T12:47:45.819Z,7.23
2023-01-29T12:50:51.229Z,8.07
2023-01-29T12:54:15.650Z,7.65
2023-01-29T12:57:42.588Z,7.55
2023-01-29T13:00:50.969Z,7.78
2023-01-29T13:04:26.083Z,7.77
2023-01-29T13:07:33.668Z,6.88
2023-01-29T13:10:41.253Z,6.88
2023-01-29T13:13:54.133Z,6.68
2023-01-29T13:17:36.985Z,8.30
2023-01-29T13:20:40.925Z,6.43
2023-01-29T13:23:48.549Z,6.28
2023-01-29T13:26:52.107Z,6.88
2023-01-29T13:29:56.499Z,6.28
2023-01-29T13:33:10.692Z,6.93
2023-01-29T13:36:20.818Z,6.67
2023-01-29T13:39:29.285Z,7.38
2023-01-29T13:42:37.897Z,8.23
2023-01-29T13:45:48.003Z,6.47
2023-01-29T13:48:52.406Z,7.93
2023-01-29T13:51:55.920Z,8.23
2023-01-29T13:55:21.495Z,7.75
2023-01-29T13:58:33.436Z,8.05
2023-01-29T14:01:48.461Z,7.05
2023-01-29T14:04:51.655Z,9.77
2023-01-29T14:07:55.198Z,9.27
2023-01-29T14:11:13.289Z,12.15
2023-01-29T14:14:52.112Z,9.05
2023-01-29T14:18:22.290Z,7.55
2023-01-29T14:21:33.886Z,8.43
2023-01-29T14:24:36.826Z,7.93
2023-01-29T14:27:39.687Z,7.63
2023-01-29T14:30:48.233Z,7.55
2023-01-29T14:33:53.492Z,6.28
2023-01-29T14:37:01.344Z,7.95
2023-01-29T14:40:22.933Z,6.33
2023-01-29T14:43:26.159Z,7.40
2023-01-29T14:46:38.204Z,7.97
2023-01-29T14:49:53.703Z,7.57
2023-01-29T14:53:05.174Z,11.82
2023-01-29T14:56:29.216Z,10.00
2023-01-29T14:59:39.612Z,8.30
2023-01-29T15:02:45.533Z,8.13
2023-01-29T15:05:50.675Z,7.40
2023-01-29T15:09:06.779Z,8.48
2023-01-29T15:12:31.489Z,8.77
2023-01-29T15:15:52.071Z,8.35
2023-01-29T15:19:04.669Z,9.38
2023-01-29T15:22:14.160Z,9.38
2023-01-29T15:25:20.480Z,9.25
2023-01-29T15:28:23.359Z,8.23
2023-01-29T15:31:29.071Z,9.88
2023-01-29T15:34:32.185Z,10.60
2023-01-29T15:37:36.553Z,8.43
2023-01-29T15:40:40.710Z,8.90
2023-01-29T15:43:46.423Z,9.37
2023-01-29T15:46:55.947Z,8.60
2023-01-29T15:50:00.359Z,9.38
2023-01-29T15:53:08.782Z,10.68
2023-01-29T15:56:12.908Z,11.57
2023-01-29T15:59:24.432Z,9.40
2023-01-29T16:02:39.595Z,9.38
2023-01-29T16:05:42.988Z,10.60
2023-01-29T16:08:51.558Z,9.25
2023-01-29T16:11:58.916Z,9.15
2023-01-29T16:15:04.378Z,9.50
2023-01-29T16:18:28.535Z,9.63
2023-01-29T16:21:40.731Z,9.70
2023-01-29T16:24:45.941Z,9.52
2023-01-29T16:27:49.151Z,9.13
2023-01-29T16:30:59.327Z,9.57
2023-01-29T16:34:28.017Z,10.75
2023-01-29T16:37:36.420Z,10.05
2023-01-29T16:41:01.895Z,9.80
2023-01-29T16:44:31.870Z,10.27
2023-01-29T16:47:41.229Z,9.20
2023-01-29T16:50:54.638Z,9.80
2023-01-29T16:54:06.815Z,11.10
2023-01-29T16:57:18.088Z,9.50
2023-01-29T17:00:25.996Z,13.07
2023-01-29T17:03:32.986Z,10.10
2023-01-29T17:06:36.787Z,14.90
2023-01-29T17:09:41.139Z,13.18
2023-01-29T17:13:01.052Z,17.05
2023-01-29T17:16:15.330Z,18.88
2023-01-29T17:19:25.348Z,15.80
2023-01-29T17:22:28.517Z,13.43
2023-01-29T17:25:31.933Z,13.40
2023-01-29T17:28:35.006Z,12.05
2023-01-29T17:31:38.327Z,12.93
2023-01-29T17:34:41.279Z,12.57
2023-01-29T17:37:44.464Z,13.30
2023-01-29T17:40:47.494Z,14.68
2023-01-29T17:43:50.475Z,13.50
2023-01-29T17:46:53.993Z,13.35
2023-01-29T17:49:58.588Z,12.00
2023-01-29T17:53:02.805Z,12.98
2023-01-29T17:56:06.130Z,12.45
2023-01-29T17:59:28.611Z,13.80
2023-01-29T18:02:32.104Z,14.73
2023-01-29T18:05:35.087Z,13.70
2023-01-29T18:08:42.376Z,13.57
2023-01-29T18:11:46.852Z,13.52
2023-01-29T18:14:49.956Z,14.57
2023-01-29T18:17:53.225Z,12.95
2023-01-29T18:20:56.213Z,13.60
2023-01-29T18:24:00.532Z,13.10
2023-01-29T18:27:03.684Z,11.90
2023-01-29T18:30:07.647Z,12.05
2023-01-29T18:33:11.010Z,13.23
2023-01-29T18:36:14.084Z,11.77
2023-01-29T18:39:17.284Z,13.82
2023-01-29T18:42:20.355Z,12.57
2023-01-29T18:45:23.410Z,13.30
2023-01-29T18:48:26.755Z,15.68
2023-01-29T18:51:31.096Z,12.60
2023-01-29T18:54:34.246Z,12.77
2023-01-29T18:58:25.513Z,14.23
2023-01-29T19:01:09.289Z,12.43
2023-01-29T19:04:12.858Z,13.07
2023-01-29T19:07:16.325Z,12.40
2023-01-29T19:10:19.763Z,11.50
2023-01-29T19:13:23.297Z,15.57
2023-01-29T19:16:27.216Z,13.50
2023-01-29T19:19:31.298Z,13.02
2023-01-29T19:22:34.343Z,11.77
2023-01-29T19:25:39.485Z,11.90
2023-01-29T19:28:42.848Z,12.38
2023-01-29T19:31:46.975Z,11.95
2023-01-29T19:34:52.366Z,12.00
2023-01-29T19:37:56.217Z,12.10
2023-01-29T19:41:00.522Z,12.02
2023-01-29T19:44:04.635Z,13.65
2023-01-29T19:47:10.232Z,11.43
2023-01-29T19:50:13.824Z,13.10
2023-01-29T19:53:18.031Z,11.57
2023-01-29T19:56:21.246Z,12.48
2023-01-29T19:59:24.429Z,13.02
2023-01-29T20:02:28.675Z,12.15
2023-01-29T20:05:35.791Z,13.15
2023-01-29T20:08:39.137Z,12.83
2023-01-29T20:11:44.434Z,12.82
2023-01-29T20:14:52.131Z,13.57
2023-01-29T20:17:55.317Z,12.82
2023-01-29T20:20:59.919Z,13.57
2023-01-29T20:24:03.151Z,13.70
2023-01-29T20:27:07.342Z,13.70
2023-01-29T20:30:11.091Z,14.85
2023-01-29T20:33:14.227Z,13.65
2023-01-29T20:36:19.332Z,15.50
2023-01-29T20:39:23.789Z,16.37
2023-01-29T20:42:27.039Z,19.33
2023-01-29T20:45:33.111Z,20.17
2023-01-29T20:48:37.561Z,17.92
2023-01-29T20:51:40.790Z,17.02
2023-01-29T20:54:43.864Z,17.20
2023-01-29T20:58:05.769Z,16.48
2023-01-29T21:01:11.389Z,19.70
2023-01-29T21:04:14.447Z,20.02
2023-01-29T21:07:17.925Z,22.83
2023-01-29T21:10:21.033Z,25.20
2023-01-29T21:13:24.872Z,25.52
2023-01-29T21:16:29.149Z,28.50
2023-01-29T21:19:33.132Z,28.35
2023-01-29T21:22:36.897Z,27.52
2023-01-29T21:25:41.288Z,26.57
2023-01-29T21:28:44.983Z,25.73
2023-01-29T21:31:48.873Z,28.15
2023-01-29T21:34:52.686Z,23.77
2023-01-29T21:37:56.149Z,22.90
2023-01-29T21:41:01.103Z,19.97
2023-01-29T21:44:03.887Z,18.90
2023-01-29T21:47:12.472Z,23.25
2023-01-29T21:50:16.460Z,20.10
2023-01-29T21:53:20.143Z,21.55
2023-01-29T21:56:23.026Z,20.33
2023-01-29T21:59:26.097Z,19.55
2023-01-29T22:02:32.230Z,20.08
2023-01-29T22:05:35.427Z,19.13
2023-01-29T22:08:38.228Z,18.50
2023-01-29T22:11:41.772Z,18.93
2023-01-29T22:14:44.957Z,18.17
2023-01-29T22:17:47.903Z,16.75
2023-01-29T22:20:57.979Z,18.10
2023-01-29T22:24:00.872Z,19.20
2023-01-29T22:27:03.795Z,19.47
2023-01-29T22:30:07.550Z,18.08
2023-01-29T22:33:11.104Z,19.27
2023-01-29T22:36:14.032Z,25.35
2023-01-29T22:39:17.050Z,20.50
2023-01-29T22:42:20.795Z,19.37
2023-01-29T22:45:23.745Z,26.00
2023-01-29T22:48:28.088Z,23.02
2023-01-29T22:51:31.328Z,18.55
2023-01-29T22:54:34.141Z,16.92
2023-01-29T22:57:38.863Z,16.33
2023-01-29T23:00:41.743Z,14.45
2023-01-29T23:03:44.526Z,14.95
2023-01-29T23:06:47.403Z,14.68
2023-01-29T23:09:51.190Z,14.90
2023-01-29T23:12:54.181Z,14.13
2023-01-29T23:16:00.238Z,15.23
2023-01-29T23:19:04.214Z,15.55
2023-01-29T23:22:07.241Z,15.52
2023-01-29T23:25:10.178Z,16.48
2023-01-29T23:28:13.494Z,17.60
2023-01-29T23:31:17.889Z,17.38
2023-01-29T23:34:20.823Z,15.40
2023-01-29T23:37:24.327Z,15.75
2023-01-29T23:40:28.209Z,14.57
2023-01-29T23:43:31.357Z,13.40
2023-01-29T23:46:34.226Z,13.43
2023-01-29T23:49:37.427Z,13.82
2023-01-29T23:52:40.256Z,13.40
2023-01-29T23:55:43.304Z,13.20
2023-01-29T23:58:46.581Z,14.57
